Ocean Sapphire — VRKL8 — position and weather

sailwx.info

Track history (hours):
 
Tides and Currents Weather Stations Pressure Air Temp Water Temp Dewpoint Dewpoint Depression Visibility Wind Speed Wind Dir Waves Ship Positions

Ocean Sapphire

Last reported at 2014-Aug-28 01:28 UTC. Time now 2014-Sep-03 00:08 UTC.
Position S 32°35' E 152°43'.

Length 229 m; draft 12.6 m.

Type: Cargo ship. MMSI: 477065400.

Date/timePositionNaut miles runAvg speedWind from/ knotsBaromVisibWave heightAir tempDewpointWater temp
2014-Aug-28 01:28S 32°35' E 152°43'6 5.9
2014-Aug-28 00:30S 32°38' E 152°37'6 5.9
2014-Aug-27 23:34S 32°41' E 152°32'6 6.2
2014-Aug-27 22:34S 32°44' E 152°25'6 6.4
2014-Aug-27 21:34S 32°47' E 152°19'6 6.4
2014-Aug-27 20:33S 32°49' E 152°12'7 6.5
2014-Aug-27 19:34S 32°52' E 152°05'6 6.4
2014-Aug-27 18:34S 32°55' E 151°58'7 7.5
2014-Aug-27 17:34S 32°55' E 151°49'2 0.1
2014-Aug-26 18:33S 32°54' E 151°46'0 0.0
2014-Aug-26 04:22S 32°54' E 151°46'1 1.7
2014-Aug-26 03:32S 32°55' E 151°47'7 7.4
2014-Aug-26 02:33S 33°02' E 151°51'6 5.9
2014-Aug-26 01:33S 33°06' E 151°56'6 6.4
2014-Aug-26 00:33S 33°12' E 151°60'10 9.7
2014-Aug-25 23:33S 33°21' E 152°00'  
2014-Aug-22 16:19S 33°14' E 152°18'3 1.4
2014-Aug-22 14:05S 33°12' E 152°21'8 2.3
2014-Aug-22 10:31S 33°12' E 152°11'5 1.4
2014-Aug-22 07:07S 33°12' E 152°17'1 1.1
2014-Aug-22 06:13S 33°12' E 152°18'4 1.0
2014-Aug-22 01:31S 33°13' E 152°23'4 3.9
2014-Aug-22 00:33S 33°09' E 152°22'8 8.2
2014-Aug-21 23:32S 33°02' E 152°17'1 1.2
2014-Aug-21 22:32S 33°03' E 152°17'1 0.9
2014-Aug-21 21:32S 33°04' E 152°17'1 0.9
2014-Aug-21 20:32S 33°05' E 152°17'1 0.9
2014-Aug-21 19:32S 33°06' E 152°17'1 0.9
2014-Aug-21 18:32S 33°06' E 152°18'1 1.0
2014-Aug-21 17:32S 33°07' E 152°18'1 0.5
2014-Aug-21 16:28S 33°08' E 152°18'7 8.2
2014-Aug-21 15:33S 33°04' E 152°11'7 7.3
2014-Aug-21 14:33S 32°59' E 152°04'2 1.5
2014-Aug-21 13:33S 33°00' E 152°05'1 1.4
2014-Aug-21 12:33S 33°02' E 152°06'2 1.5
2014-Aug-21 11:30S 33°03' E 152°06'1 1.4
2014-Aug-21 10:33S 33°04' E 152°07'2 1.6
2014-Aug-21 09:33S 33°06' E 152°08'3 3.4
2014-Aug-21 08:33S 33°03' E 152°04'9 8.6
2014-Aug-21 07:33S 32°56' E 151°59'10 9.6
2014-Aug-21 06:33S 32°52' E 152°09'10 9.8
2014-Aug-21 05:33S 32°47' E 152°19'9 9.3
2014-Aug-21 04:33S 32°43' E 152°29'1010.0
2014-Aug-21 03:33S 32°39' E 152°40'1110.7
2014-Aug-21 02:33S 32°34' E 152°51'  
Track history (hours):
 
Tides and Currents Weather Stations Pressure Air Temp Water Temp Dewpoint Dewpoint Depression Visibility Wind Speed Wind Dir Waves Ship Positions

Ocean Sapphire

Last reported at 2014-Aug-28 01:28 UTC. Time now 2014-Sep-03 00:08 UTC.
Position S 32°35' E 152°43'.

Length 229 m; draft 12.6 m.

Type: Cargo ship. MMSI: 477065400.

Date/timePositionNaut miles runAvg speedWind from/ knotsBaromVisibWave heightAir tempDewpointWater temp
2014-Aug-28 01:28S 32°35' E 152°43'6 5.9
2014-Aug-28 00:30S 32°38' E 152°37'6 5.9
2014-Aug-27 23:34S 32°41' E 152°32'6 6.2
2014-Aug-27 22:34S 32°44' E 152°25'6 6.4
2014-Aug-27 21:34S 32°47' E 152°19'6 6.4
2014-Aug-27 20:33S 32°49' E 152°12'7 6.5
2014-Aug-27 19:34S 32°52' E 152°05'6 6.4
2014-Aug-27 18:34S 32°55' E 151°58'7 7.5
2014-Aug-27 17:34S 32°55' E 151°49'2 0.1
2014-Aug-26 18:33S 32°54' E 151°46'0 0.0
2014-Aug-26 04:22S 32°54' E 151°46'1 1.7
2014-Aug-26 03:32S 32°55' E 151°47'7 7.4
2014-Aug-26 02:33S 33°02' E 151°51'6 5.9
2014-Aug-26 01:33S 33°06' E 151°56'6 6.4
2014-Aug-26 00:33S 33°12' E 151°60'10 9.7
2014-Aug-25 23:33S 33°21' E 152°00'  
2014-Aug-22 16:19S 33°14' E 152°18'3 1.4
2014-Aug-22 14:05S 33°12' E 152°21'8 2.3
2014-Aug-22 10:31S 33°12' E 152°11'5 1.4
2014-Aug-22 07:07S 33°12' E 152°17'1 1.1
2014-Aug-22 06:13S 33°12' E 152°18'4 1.0
2014-Aug-22 01:31S 33°13' E 152°23'4 3.9
2014-Aug-22 00:33S 33°09' E 152°22'8 8.2
2014-Aug-21 23:32S 33°02' E 152°17'1 1.2
2014-Aug-21 22:32S 33°03' E 152°17'1 0.9
2014-Aug-21 21:32S 33°04' E 152°17'1 0.9
2014-Aug-21 20:32S 33°05' E 152°17'1 0.9
2014-Aug-21 19:32S 33°06' E 152°17'1 0.9
2014-Aug-21 18:32S 33°06' E 152°18'1 1.0
2014-Aug-21 17:32S 33°07' E 152°18'1 0.5
2014-Aug-21 16:28S 33°08' E 152°18'7 8.2
2014-Aug-21 15:33S 33°04' E 152°11'7 7.3
2014-Aug-21 14:33S 32°59' E 152°04'2 1.5
2014-Aug-21 13:33S 33°00' E 152°05'1 1.4
2014-Aug-21 12:33S 33°02' E 152°06'2 1.5
2014-Aug-21 11:30S 33°03' E 152°06'1 1.4
2014-Aug-21 10:33S 33°04' E 152°07'2 1.6
2014-Aug-21 09:33S 33°06' E 152°08'3 3.4
2014-Aug-21 08:33S 33°03' E 152°04'9 8.6
2014-Aug-21 07:33S 32°56' E 151°59'10 9.6
2014-Aug-21 06:33S 32°52' E 152°09'10 9.8
2014-Aug-21 05:33S 32°47' E 152°19'9 9.3
2014-Aug-21 04:33S 32°43' E 152°29'1010.0
2014-Aug-21 03:33S 32°39' E 152°40'1110.7
2014-Aug-21 02:33S 32°34' E 152°51'  

Dump ship's entire track history